Time;durP1;ratioP1;P1;durP2;ratioP2;P2;SDS_P1;SDS_P2;PMS_P1;PMS_P2;Temp;Humidity;BMP_temperature;BMP_pressure;BME280_temperature;BME280_humidity;BME280_pressure;Samples;Min_cycle;Max_cycle;Signal;HPM_P1;HPM_P2
2022/12/23 00:00:05;;;;;;;3.80;1.80;;;11.20;1.00;;;;;;5093001;28;20424;-86
2022/12/23 00:02:31;;;;;;;4.60;1.97;;;11.20;1.00;;;;;;5093996;28;20172;-85
2022/12/23 00:04:56;;;;;;;5.87;2.17;;;11.20;1.00;;;;;;5091987;28;20497;-86
2022/12/23 00:07:24;;;;;;;10.40;2.33;;;11.20;1.00;;;;;;5097804;28;20246;-86
2022/12/23 00:09:50;;;;;;;8.70;2.23;;;11.20;1.00;;;;;;5076108;28;20264;-85
2022/12/23 00:15:05;;;;;;;6.00;2.60;;;11.20;1.00;;;;;;5093889;28;20677;-86
2022/12/23 00:17:44;;;;;;;3.67;2.20;;;11.30;1.00;;;;;;5093162;28;20449;-86
2022/12/23 00:20:12;;;;;;;5.90;2.87;;;11.30;1.00;;;;;;5076281;28;20519;-87
2022/12/23 00:25:39;;;;;;;8.47;2.30;;;11.30;1.00;;;;;;5075400;28;20527;-88
2022/12/23 00:28:13;;;;;;;4.57;2.27;;;11.30;1.00;;;;;;5087934;28;20482;-86
2022/12/23 00:30:53;;;;;;;9.53;3.40;;;11.30;1.00;;;;;;5084249;28;21114;-86
2022/12/23 00:33:21;;;;;;;8.40;3.03;;;11.30;1.00;;;;;;5089421;28;20433;-87
2022/12/23 00:35:47;;;;;;;7.03;2.80;;;11.30;1.00;;;;;;5111018;28;20851;-86
2022/12/23 00:38:13;;;;;;;3.97;2.70;;;11.30;1.00;;;;;;5096965;28;20464;-86
2022/12/23 00:43:23;;;;;;;9.03;2.80;;;11.30;1.00;;;;;;5082468;28;20949;-85
2022/12/23 00:45:48;;;;;;;8.47;3.40;;;11.30;1.00;;;;;;5087096;28;20514;-87
2022/12/23 00:50:58;;;;;;;5.10;3.23;;;11.30;1.00;;;;;;5092218;28;20192;-88
2022/12/23 00:53:23;;;;;;;4.50;3.10;;;11.30;1.00;;;;;;5084614;28;20444;-88
2022/12/23 00:55:49;;;;;;;5.50;3.40;;;11.20;1.00;;;;;;5087750;28;20297;-86
2022/12/23 00:58:16;;;;;;;8.50;3.87;;;11.30;1.00;;;;;;5087342;28;20278;-87
2022/12/23 01:06:11;;;;;;;7.70;4.40;;;11.20;1.00;;;;;;5083979;28;20797;-86
2022/12/23 01:08:37;;;;;;;7.40;4.67;;;11.10;1.00;;;;;;5097597;28;20441;-86
2022/12/23 01:11:04;;;;;;;12.53;4.90;;;11.10;1.00;;;;;;5087217;28;20185;-87
2022/12/23 01:13:29;;;;;;;10.80;4.67;;;11.10;1.00;;;;;;5090061;28;20187;-90
2022/12/23 01:16:03;;;;;;;8.50;4.50;;;11.10;1.00;;;;;;5090033;28;20505;-86
2022/12/23 01:18:28;;;;;;;9.03;5.17;;;11.20;1.00;;;;;;5094892;28;20203;-86
2022/12/23 01:20:54;;;;;;;10.43;5.47;;;11.20;1.00;;;;;;5088997;28;20465;-88
2022/12/23 01:23:19;;;;;;;7.17;4.63;;;11.20;1.00;;;;;;5093874;28;20714;-86
2022/12/23 01:25:46;;;;;;;14.20;5.80;;;11.20;1.00;;;;;;5086894;28;20311;-87
2022/12/23 01:28:12;;;;;;;11.30;6.47;;;11.20;1.00;;;;;;5087963;28;20264;-86
2022/12/23 01:30:38;;;;;;;9.70;6.27;;;11.20;1.00;;;;;;5101348;28;20488;-86
2022/12/23 01:33:04;;;;;;;17.13;7.03;;;11.20;1.00;;;;;;5096551;28;20556;-86
2022/12/23 01:35:29;;;;;;;13.60;7.00;;;11.20;1.00;;;;;;5089453;28;20446;-87
2022/12/23 01:37:55;;;;;;;9.53;6.60;;;11.20;1.00;;;;;;5080648;28;20204;-86
2022/12/23 01:40:20;;;;;;;12.33;7.10;;;11.20;1.00;;;;;;5092185;28;20202;-87
2022/12/23 01:42:46;;;;;;;10.90;6.47;;;11.20;1.00;;;;;;5088704;28;20271;-86
2022/12/23 01:45:14;;;;;;;15.13;7.30;;;11.20;1.00;;;;;;5087767;28;20188;-87
2022/12/23 01:48:10;;;;;;;11.10;7.23;;;11.20;1.00;;;;;;5087057;28;20204;-86
2022/12/23 01:50:37;;;;;;;12.93;7.30;;;11.20;1.00;;;;;;5105700;28;20486;-86
2022/12/23 01:53:05;;;;;;;16.43;7.60;;;11.20;1.00;;;;;;5090573;28;20912;-87
2022/12/23 01:55:34;;;;;;;13.53;6.77;;;11.20;1.00;;;;;;5084843;28;20843;-86
2022/12/23 01:58:08;;;;;;;10.37;6.70;;;11.20;1.00;;;;;;5090180;28;20511;-86
2022/12/23 02:04:00;;;;;;;11.70;6.93;;;11.30;1.00;;;;;;5086534;28;20556;-86
2022/12/23 02:09:16;;;;;;;17.53;8.40;;;11.30;1.00;;;;;;5087825;28;20476;-87
2022/12/23 02:12:06;;;;;;;14.50;7.80;;;11.20;1.00;;;;;;5091511;28;20521;-87
2022/12/23 02:17:53;;;;;;;12.67;7.10;;;11.20;1.00;;;;;;5096485;28;20460;-86
2022/12/23 02:20:47;;;;;;;10.10;6.70;;;11.20;1.00;;;;;;5080581;28;20450;-86
2022/12/23 02:23:50;;;;;;;14.23;7.10;;;11.20;1.00;;;;;;5083238;28;20571;-87
2022/12/23 02:26:34;;;;;;;9.20;6.37;;;11.20;1.00;;;;;;5072708;28;20403;-86
2022/12/23 02:29:23;;;;;;;12.20;6.20;;;11.20;1.00;;;;;;5089561;28;20790;-86
2022/12/23 02:32:07;;;;;;;11.30;6.07;;;11.20;1.00;;;;;;5087710;28;20473;-86
2022/12/23 02:34:44;;;;;;;14.83;6.60;;;11.20;1.00;;;;;;5090509;28;20418;-87
2022/12/23 02:37:28;;;;;;;10.27;5.13;;;11.30;1.00;;;;;;5081439;28;20458;-87
2022/12/23 02:40:01;;;;;;;12.77;6.00;;;11.30;1.00;;;;;;5088564;28;20476;-87
2022/12/23 02:42:37;;;;;;;13.83;6.33;;;11.30;1.00;;;;;;5086127;28;20464;-86
2022/12/23 02:45:27;;;;;;;11.23;5.33;;;11.30;1.00;;;;;;5091858;28;20394;-86
2022/12/23 02:48:03;;;;;;;12.73;6.10;;;11.30;1.00;;;;;;5102394;28;20486;-87
2022/12/23 02:50:33;;;;;;;13.93;5.57;;;11.30;1.00;;;;;;5090828;28;20798;-86
2022/12/23 02:53:05;;;;;;;10.23;4.70;;;11.30;1.00;;;;;;5096200;28;20508;-87
2022/12/23 02:55:34;;;;;;;11.10;5.10;;;11.30;1.00;;;;;;5083486;28;20445;-86
2022/12/23 02:58:04;;;;;;;11.53;5.43;;;11.30;1.00;;;;;;5097924;28;20428;-88
2022/12/23 03:00:31;;;;;;;10.53;4.63;;;11.30;1.00;;;;;;5076743;28;20497;-87
2022/12/23 03:02:56;;;;;;;10.30;5.57;;;11.30;1.00;;;;;;5091568;28;20471;-86
2022/12/23 03:05:23;;;;;;;11.07;7.00;;;11.30;1.00;;;;;;5083811;28;20513;-86
2022/12/23 03:07:50;;;;;;;17.77;6.07;;;11.20;1.00;;;;;;5082651;28;20329;-86
2022/12/23 03:10:28;;;;;;;9.73;5.60;;;11.30;1.00;;;;;;5086649;28;20904;-85
2022/12/23 03:13:36;;;;;;;13.40;5.87;;;11.20;1.00;;;;;;5091314;28;20782;-87
2022/12/23 03:16:23;;;;;;;8.50;5.90;;;11.20;1.00;;;;;;5106800;28;20427;-86
2022/12/23 03:19:42;;;;;;;12.80;5.80;;;11.20;1.00;;;;;;5091726;28;20453;-88
2022/12/23 03:22:34;;;;;;;12.23;4.90;;;11.20;1.00;;;;;;5046932;28;20472;-89
2022/12/23 03:25:04;;;;;;;9.83;5.37;;;11.20;1.00;;;;;;5111837;28;20406;-86
2022/12/23 03:27:39;;;;;;;14.10;5.00;;;11.20;1.00;;;;;;5086941;28;20452;-86
2022/12/23 03:30:15;;;;;;;10.00;4.57;;;11.20;1.00;;;;;;5090745;28;21026;-86
2022/12/23 03:32:58;;;;;;;11.60;4.27;;;11.20;1.00;;;;;;5086724;28;20401;-88
2022/12/23 03:35:29;;;;;;;7.97;4.20;;;11.20;1.00;;;;;;5074356;28;20830;-86
2022/12/23 03:37:58;;;;;;;8.60;4.10;;;11.20;1.00;;;;;;5085124;28;20481;-86
2022/12/23 03:40:41;;;;;;;14.43;4.57;;;11.20;1.00;;;;;;5084636;28;20455;-87
2022/12/23 03:43:19;;;;;;;8.03;3.87;;;11.20;1.00;;;;;;5085925;28;20437;-86
2022/12/23 03:45:49;;;;;;;13.83;4.83;;;11.20;1.00;;;;;;5083474;28;20522;-86
2022/12/23 03:48:22;;;;;;;6.60;3.53;;;11.20;1.00;;;;;;5097355;28;20437;-87
2022/12/23 03:50:52;;;;;;;3.73;3.03;;;11.20;1.00;;;;;;5092335;28;20464;-88
2022/12/23 03:53:24;;;;;;;10.17;3.10;;;11.20;1.00;;;;;;5095232;28;20790;-86
2022/12/23 03:55:55;;;;;;;12.50;3.57;;;11.20;1.00;;;;;;5092813;28;20433;-86
2022/12/23 03:58:20;;;;;;;3.70;2.83;;;11.20;1.00;;;;;;5097657;28;20496;-86
2022/12/23 04:01:04;;;;;;;11.47;3.77;;;11.20;1.00;;;;;;5084782;28;20467;-86
2022/12/23 04:03:49;;;;;;;12.93;2.97;;;11.20;1.00;;;;;;5091483;28;20172;-88
2022/12/23 04:06:16;;;;;;;7.57;2.63;;;11.20;1.00;;;;;;5099314;28;20414;-86
2022/12/23 04:08:45;;;;;;;5.40;2.60;;;11.20;1.00;;;;;;5102447;28;20501;-86
2022/12/23 04:11:11;;;;;;;4.50;2.60;;;11.20;1.00;;;;;;5084246;28;20438;-86
2022/12/23 04:13:36;;;;;;;11.90;4.23;;;11.20;1.00;;;;;;5093172;28;20921;-86
2022/12/23 04:16:03;;;;;;;7.73;2.87;;;11.20;1.00;;;;;;5087185;28;20442;-86
2022/12/23 04:18:28;;;;;;;5.47;1.97;;;11.20;1.00;;;;;;5078707;28;20192;-87
2022/12/23 04:20:54;;;;;;;4.90;2.10;;;11.20;1.00;;;;;;5097592;28;20469;-87
2022/12/23 04:23:19;;;;;;;5.40;2.00;;;11.20;1.00;;;;;;5094199;28;20762;-86
2022/12/23 04:25:45;;;;;;;5.20;2.47;;;11.20;1.00;;;;;;5093455;28;22188;-87
2022/12/23 04:28:10;;;;;;;4.10;2.00;;;11.20;1.00;;;;;;5089200;28;20196;-86
2022/12/23 04:30:36;;;;;;;5.10;2.10;;;11.20;1.00;;;;;;5091090;28;20269;-85
2022/12/23 04:33:02;;;;;;;16.30;2.57;;;11.20;1.00;;;;;;5076001;28;20275;-87
2022/12/23 04:35:27;;;;;;;4.03;2.17;;;11.20;1.00;;;;;;5091659;28;20177;-86
2022/12/23 04:37:53;;;;;;;5.30;1.93;;;11.20;1.00;;;;;;5094290;28;20645;-87
2022/12/23 04:40:18;;;;;;;8.80;2.97;;;11.20;1.00;;;;;;5096312;28;20453;-86
2022/12/23 04:42:44;;;;;;;17.60;3.13;;;11.20;1.00;;;;;;5084094;28;20564;-87
2022/12/23 04:45:10;;;;;;;11.50;3.50;;;11.20;1.00;;;;;;5093817;28;20247;-88
2022/12/23 04:47:35;;;;;;;5.90;3.07;;;11.20;1.00;;;;;;5100463;28;20247;-86
2022/12/23 04:50:01;;;;;;;9.50;4.00;;;11.10;1.00;;;;;;5083000;28;20192;-87
2022/12/23 04:52:26;;;;;;;7.90;4.80;;;11.10;1.00;;;;;;5086046;28;20263;-87
2022/12/23 04:54:52;;;;;;;12.40;3.67;;;11.10;1.00;;;;;;5080030;28;20195;-86
2022/12/23 04:57:17;;;;;;;12.50;4.47;;;11.10;1.00;;;;;;5097458;28;20219;-86
2022/12/23 04:59:46;;;;;;;6.07;4.23;;;11.20;1.00;;;;;;5096113;28;20222;-86
2022/12/23 05:02:12;;;;;;;11.90;3.90;;;11.20;1.00;;;;;;5084538;28;20202;-86
2022/12/23 05:04:37;;;;;;;8.07;4.17;;;11.20;1.00;;;;;;5093303;28;20403;-87
2022/12/23 05:07:03;;;;;;;9.93;3.83;;;11.20;1.00;;;;;;5082485;28;20187;-86
2022/12/23 05:09:28;;;;;;;8.10;4.13;;;11.20;1.00;;;;;;5095919;28;20603;-85
2022/12/23 05:11:54;;;;;;;11.33;5.00;;;11.10;1.00;;;;;;5091465;28;20263;-86
2022/12/23 05:14:19;;;;;;;8.23;5.20;;;11.10;1.00;;;;;;5085942;28;20241;-88
2022/12/23 05:16:45;;;;;;;13.07;5.60;;;11.10;1.00;;;;;;5089866;28;20196;-86
2022/12/23 05:19:11;;;;;;;8.73;4.20;;;11.10;1.00;;;;;;5091708;28;20216;-87
2022/12/23 05:21:36;;;;;;;14.80;5.10;;;11.00;1.00;;;;;;5087414;28;20235;-86
2022/12/23 05:24:02;;;;;;;9.23;4.60;;;11.00;1.00;;;;;;5083483;28;20185;-85
2022/12/23 05:26:28;;;;;;;17.87;5.10;;;11.10;1.00;;;;;;5092871;28;20183;-87
2022/12/23 05:28:54;;;;;;;11.63;4.50;;;11.10;1.00;;;;;;5081478;28;20196;-87
2022/12/23 05:31:19;;;;;;;9.43;4.53;;;11.10;1.00;;;;;;5076752;28;20177;-86
2022/12/23 05:33:45;;;;;;;13.27;4.70;;;11.10;1.00;;;;;;5083608;28;20522;-87
2022/12/23 05:36:11;;;;;;;10.70;4.33;;;11.10;1.00;;;;;;5095971;28;20650;-86
2022/12/23 05:38:36;;;;;;;6.60;4.67;;;11.10;1.00;;;;;;5105035;28;20204;-86
2022/12/23 05:41:02;;;;;;;11.70;4.90;;;11.20;1.00;;;;;;5084060;28;20501;-87
2022/12/23 05:43:28;;;;;;;11.00;4.87;;;11.20;1.00;;;;;;5084169;28;20212;-86
2022/12/23 05:45:53;;;;;;;14.53;4.30;;;11.20;1.00;;;;;;5089336;28;20195;-87
2022/12/23 05:48:19;;;;;;;10.57;5.63;;;11.20;1.00;;;;;;5089215;28;20200;-86
2022/12/23 05:50:49;;;;;;;15.03;4.23;;;11.20;1.00;;;;;;5103068;28;20198;-86
2022/12/23 05:53:15;;;;;;;8.10;4.73;;;11.20;1.00;;;;;;5085525;28;20782;-87
2022/12/23 05:55:40;;;;;;;10.10;5.23;;;11.20;1.00;;;;;;5079787;28;20449;-86
2022/12/23 05:58:06;;;;;;;13.10;5.20;;;11.20;1.00;;;;;;5086254;28;20281;-86
2022/12/23 06:00:32;;;;;;;8.50;4.10;;;11.20;1.00;;;;;;5097161;28;20279;-85
2022/12/23 06:02:57;;;;;;;8.73;4.57;;;11.20;1.00;;;;;;5087497;28;20189;-87
2022/12/23 06:05:23;;;;;;;9.93;4.50;;;11.20;1.00;;;;;;5083940;28;20183;-88
2022/12/23 06:07:48;;;;;;;6.63;4.50;;;11.20;1.00;;;;;;5086389;28;20257;-86
2022/12/23 06:10:14;;;;;;;7.17;4.47;;;11.20;1.00;;;;;;5077209;28;20267;-87
2022/12/23 06:12:39;;;;;;;13.40;4.77;;;11.20;1.00;;;;;;5079822;28;20184;-89
2022/12/23 06:15:06;;;;;;;7.03;4.33;;;11.20;1.00;;;;;;5077499;28;20196;-86
2022/12/23 06:17:31;;;;;;;18.23;5.70;;;11.20;1.00;;;;;;5090213;28;20192;-87
2022/12/23 06:19:57;;;;;;;13.30;4.37;;;11.20;1.00;;;;;;5100312;28;20763;-86
2022/12/23 06:22:22;;;;;;;11.50;4.70;;;11.30;1.00;;;;;;5094021;28;20207;-87
2022/12/23 06:24:49;;;;;;;10.60;5.63;;;11.30;1.00;;;;;;5094980;28;20253;-86
2022/12/23 06:27:14;;;;;;;10.27;5.17;;;11.30;1.00;;;;;;5084853;28;20230;-86
2022/12/23 06:29:40;;;;;;;8.97;4.33;;;11.30;1.00;;;;;;5087670;28;20516;-86
2022/12/23 06:32:06;;;;;;;8.60;5.60;;;11.30;1.00;;;;;;5100155;28;20567;-87
2022/12/23 06:34:31;;;;;;;13.70;5.50;;;11.30;1.00;;;;;;5091051;28;20188;-87
2022/12/23 06:36:58;;;;;;;12.00;5.60;;;11.30;1.00;;;;;;5082594;28;20206;-89
2022/12/23 06:39:24;;;;;;;14.50;5.87;;;11.30;1.00;;;;;;5088951;28;20193;-87
2022/12/23 06:41:49;;;;;;;14.33;5.90;;;11.30;1.00;;;;;;5087148;28;20477;-87
2022/12/23 06:44:16;;;;;;;9.13;5.80;;;11.30;1.00;;;;;;5091720;28;20426;-86
2022/12/23 06:46:41;;;;;;;9.17;6.23;;;11.30;1.00;;;;;;5082627;28;20545;-86
2022/12/23 06:49:07;;;;;;;10.70;5.83;;;11.30;1.00;;;;;;5089103;28;20447;-86
2022/12/23 06:51:32;;;;;;;10.60;6.07;;;11.30;1.00;;;;;;5070890;28;20636;-88
2022/12/23 06:53:59;;;;;;;9.00;5.00;;;11.30;1.00;;;;;;5103211;28;20217;-87
2022/12/23 06:56:25;;;;;;;9.33;5.93;;;11.30;1.00;;;;;;5080604;28;20191;-87
2022/12/23 06:58:51;;;;;;;14.10;5.80;;;11.30;1.00;;;;;;5081765;28;20457;-86
2022/12/23 07:01:17;;;;;;;12.57;5.40;;;11.30;1.00;;;;;;5079223;28;20487;-88
2022/12/23 07:03:43;;;;;;;6.33;4.63;;;11.30;1.00;;;;;;5087256;28;20439;-86
2022/12/23 07:06:08;;;;;;;8.07;6.40;;;11.30;1.00;;;;;;5090862;28;20502;-87
2022/12/23 07:08:34;;;;;;;13.93;5.57;;;11.30;1.00;;;;;;5087092;28;20226;-86
2022/12/23 07:11:02;;;;;;;12.77;5.90;;;11.20;1.00;;;;;;5088606;28;20223;-89
2022/12/23 07:13:28;;;;;;;9.83;5.87;;;11.20;1.00;;;;;;5109905;28;20176;-88
2022/12/23 07:15:53;;;;;;;10.00;5.53;;;11.20;1.00;;;;;;5096965;28;20476;-86
2022/12/23 07:18:21;;;;;;;9.90;6.43;;;11.20;1.00;;;;;;5089931;28;20459;-86
2022/12/23 07:20:47;;;;;;;9.17;6.33;;;11.20;1.00;;;;;;5099857;28;20204;-87
2022/12/23 07:23:12;;;;;;;8.87;5.20;;;11.20;1.00;;;;;;5084165;28;20461;-89
2022/12/23 07:25:38;;;;;;;12.87;6.67;;;11.20;1.00;;;;;;5085963;28;20176;-85
2022/12/23 07:28:04;;;;;;;10.53;6.70;;;11.20;1.00;;;;;;5105866;28;20202;-86
2022/12/23 07:30:29;;;;;;;11.77;6.30;;;11.20;1.00;;;;;;5090663;28;20187;-87
2022/12/23 07:32:55;;;;;;;13.03;6.40;;;11.20;1.00;;;;;;5088596;28;20438;-87
2022/12/23 07:35:20;;;;;;;8.23;5.77;;;11.30;1.00;;;;;;5081377;28;20189;-88
2022/12/23 07:37:51;;;;;;;12.27;7.70;;;11.30;1.00;;;;;;5091618;28;20238;-88
2022/12/23 07:40:17;;;;;;;9.00;6.50;;;11.30;1.00;;;;;;5093757;28;20183;-89
2022/12/23 07:42:42;;;;;;;28.13;8.33;;;11.30;1.00;;;;;;5092231;28;20446;-88
2022/12/23 07:45:08;;;;;;;10.77;7.23;;;11.40;1.00;;;;;;5094468;28;20168;-89
2022/12/23 07:47:34;;;;;;;12.33;7.73;;;11.40;1.00;;;;;;5094414;28;20188;-89
2022/12/23 07:49:59;;;;;;;12.23;7.53;;;11.30;1.00;;;;;;5094589;28;20461;-88
2022/12/23 07:52:25;;;;;;;9.63;7.20;;;11.30;1.00;;;;;;5087880;28;20184;-89
2022/12/23 07:54:50;;;;;;;11.13;7.63;;;11.40;1.00;;;;;;5098286;28;20187;-88
2022/12/23 07:57:16;;;;;;;14.03;6.80;;;11.40;1.00;;;;;;5098415;28;20717;-88
2022/12/23 07:59:41;;;;;;;10.80;7.63;;;11.40;1.00;;;;;;5093088;28;20335;-88
2022/12/23 08:02:09;;;;;;;12.03;6.97;;;11.40;1.00;;;;;;5108490;28;20222;-88
2022/12/23 08:04:35;;;;;;;13.03;7.30;;;11.40;1.00;;;;;;5092776;28;20552;-89
2022/12/23 08:07:00;;;;;;;13.27;7.43;;;11.40;1.00;;;;;;5094476;28;20440;-89
2022/12/23 08:09:26;;;;;;;15.33;7.40;;;11.40;1.00;;;;;;5092170;28;20211;-88
2022/12/23 08:11:51;;;;;;;9.60;7.40;;;11.50;1.00;;;;;;5088992;28;20275;-89
2022/12/23 08:14:39;;;;;;;14.33;7.40;;;11.50;1.00;;;;;;5099098;28;20257;-88
2022/12/23 08:17:04;;;;;;;10.67;6.80;;;11.50;1.00;;;;;;5103203;28;20180;-89
2022/12/23 08:19:30;;;;;;;15.47;7.93;;;11.50;1.00;;;;;;5092108;28;20433;-89
2022/12/23 08:21:55;;;;;;;11.83;7.57;;;11.50;1.00;;;;;;5097520;28;20199;-89
2022/12/23 08:24:21;;;;;;;14.83;8.17;;;11.50;1.00;;;;;;5112403;28;20180;-88
2022/12/23 08:26:46;;;;;;;15.27;6.97;;;11.50;1.00;;;;;;5083006;28;20176;-89
2022/12/23 08:29:12;;;;;;;10.23;7.10;;;11.50;1.00;;;;;;5109258;28;20222;-88
2022/12/23 08:31:37;;;;;;;13.03;7.93;;;11.60;1.00;;;;;;5111953;28;20589;-88
2022/12/23 08:34:03;;;;;;;12.10;6.90;;;11.60;1.00;;;;;;5113402;28;20194;-89
2022/12/23 08:36:31;;;;;;;11.23;7.20;;;11.50;1.00;;;;;;5112645;28;20191;-89
2022/12/23 08:38:58;;;;;;;7.07;6.10;;;11.60;1.00;;;;;;5114331;28;20194;-88
2022/12/23 08:41:30;;;;;;;11.23;6.87;;;11.50;1.00;;;;;;5098616;28;20488;-88
2022/12/23 08:43:55;;;;;;;10.03;6.53;;;11.60;1.00;;;;;;5091451;28;20437;-88
2022/12/23 08:46:22;;;;;;;12.40;6.90;;;11.60;1.00;;;;;;5093745;28;20476;-88
2022/12/23 08:48:48;;;;;;;10.63;5.60;;;11.60;1.00;;;;;;5092715;28;20192;-89
2022/12/23 08:51:17;;;;;;;11.10;6.67;;;11.60;1.00;;;;;;5092871;28;20426;-89
2022/12/23 08:53:43;;;;;;;10.57;6.80;;;11.60;1.00;;;;;;5099775;28;20449;-88
2022/12/23 08:56:12;;;;;;;16.03;6.43;;;11.60;1.00;;;;;;5103437;28;20529;-88
2022/12/23 08:59:14;;;;;;;10.43;6.00;;;11.60;1.00;;;;;;5098376;28;20512;-88
2022/12/23 09:01:39;;;;;;;11.37;5.83;;;11.60;1.00;;;;;;5083898;28;20467;-87
2022/12/23 09:04:06;;;;;;;10.43;5.83;;;11.60;1.00;;;;;;5100779;28;20441;-89
2022/12/23 09:06:35;;;;;;;10.90;6.77;;;11.60;1.00;;;;;;5085907;28;20587;-89
2022/12/23 09:09:01;;;;;;;8.27;6.00;;;11.60;1.00;;;;;;5096247;28;21026;-89
2022/12/23 09:11:28;;;;;;;10.80;6.87;;;11.50;1.00;;;;;;5092422;28;20433;-88
2022/12/23 09:13:55;;;;;;;11.10;6.43;;;11.60;1.00;;;;;;5094816;28;20425;-88
2022/12/23 09:16:21;;;;;;;9.93;6.57;;;11.60;1.00;;;;;;5097974;28;20491;-88
2022/12/23 09:18:47;;;;;;;9.43;6.20;;;11.60;1.00;;;;;;5105190;28;20463;-89
2022/12/23 09:21:17;;;;;;;14.07;5.80;;;11.60;1.00;;;;;;5091560;28;20468;-88
2022/12/23 09:23:43;;;;;;;9.60;6.70;;;11.60;1.00;;;;;;5088263;28;20624;-88
2022/12/23 09:26:09;;;;;;;32.93;7.20;;;11.60;1.00;;;;;;5099959;28;20490;-89
2022/12/23 09:28:35;;;;;;;7.23;5.97;;;11.60;1.00;;;;;;5100192;28;20199;-88
2022/12/23 09:31:08;;;;;;;9.37;6.70;;;11.60;1.00;;;;;;5111210;28;20415;-89
2022/12/23 09:33:34;;;;;;;7.97;5.77;;;11.60;1.00;;;;;;5104045;28;20483;-88
2022/12/23 09:36:00;;;;;;;9.70;4.87;;;11.60;1.00;;;;;;5073149;28;20419;-88
2022/12/23 09:38:26;;;;;;;6.80;5.30;;;11.70;1.00;;;;;;5076404;28;20262;-82
2022/12/23 09:40:51;;;;;;;12.20;5.10;;;11.70;1.00;;;;;;5091303;28;20992;-82
2022/12/23 09:43:56;;;;;;;9.57;5.47;;;11.70;1.00;;;;;;5094195;28;20660;-82
2022/12/23 09:46:24;;;;;;;9.03;4.43;;;11.70;1.00;;;;;;5059701;28;20253;-81
2022/12/23 09:49:02;;;;;;;8.20;5.97;;;11.60;1.00;;;;;;5084094;28;20480;-82
2022/12/23 09:51:29;;;;;;;9.70;4.67;;;11.60;1.00;;;;;;5076970;28;20488;-82
2022/12/23 09:54:12;;;;;;;9.63;4.77;;;11.60;1.00;;;;;;5086303;28;20439;-82
2022/12/23 09:56:57;;;;;;;10.30;5.80;;;11.60;1.00;;;;;;5098512;28;20437;-81
2022/12/23 09:59:29;;;;;;;12.90;5.97;;;11.50;1.00;;;;;;5079941;28;20421;-82
2022/12/23 10:02:02;;;;;;;6.53;5.53;;;11.60;1.00;;;;;;5077822;28;20466;-82
2022/12/23 10:04:45;;;;;;;9.70;6.27;;;11.60;1.00;;;;;;5083482;28;20477;-82
2022/12/23 10:07:32;;;;;;;9.80;6.97;;;11.60;1.00;;;;;;5088829;28;20465;-83
2022/12/23 10:10:04;;;;;;;8.83;5.80;;;11.70;1.00;;;;;;5079732;28;20447;-82
2022/12/23 10:12:38;;;;;;;13.33;6.10;;;11.70;1.00;;;;;;5082939;28;20443;-82
2022/12/23 10:15:15;;;;;;;8.17;6.40;;;11.90;1.00;;;;;;5089872;28;20958;-83
2022/12/23 10:17:42;;;;;;;12.67;5.97;;;11.90;1.00;;;;;;5098078;28;20476;-82
2022/12/23 10:20:16;;;;;;;11.23;6.30;;;12.00;1.00;;;;;;5096639;28;20530;-82
2022/12/23 10:22:44;;;;;;;13.73;8.20;;;12.10;1.00;;;;;;5102729;28;20494;-83
2022/12/23 10:25:16;;;;;;;23.53;8.50;;;12.20;1.00;;;;;;5088267;28;20808;-83
2022/12/23 10:27:43;;;;;;;16.07;8.90;;;12.20;1.00;;;;;;5091725;28;20458;-82
2022/12/23 10:30:09;;;;;;;12.30;6.67;;;12.10;1.00;;;;;;5086434;28;20434;-82
2022/12/23 10:32:57;;;;;;;13.13;8.37;;;12.10;1.00;;;;;;5075581;28;20450;-82
2022/12/23 10:35:51;;;;;;;12.33;7.50;;;12.10;1.00;;;;;;5086074;28;20185;-82
2022/12/23 10:38:22;;;;;;;11.40;6.60;;;12.10;1.00;;;;;;5093589;28;20506;-82
2022/12/23 10:40:48;;;;;;;10.30;6.73;;;12.00;1.00;;;;;;5106380;28;20470;-81
2022/12/23 10:43:31;;;;;;;10.47;6.10;;;12.00;1.00;;;;;;5085575;28;20429;-83
2022/12/23 10:46:19;;;;;;;10.50;6.53;;;12.00;1.00;;;;;;5085907;28;20848;-82
2022/12/23 10:49:12;;;;;;;13.43;5.67;;;12.00;1.00;;;;;;5083410;28;20458;-82
2022/12/23 10:51:51;;;;;;;13.60;7.30;;;12.10;1.00;;;;;;5082634;28;20435;-83
2022/12/23 10:54:31;;;;;;;12.10;7.20;;;12.00;99.90;;;;;;5085169;28;20457;-82
2022/12/23 10:56:56;;;;;;;12.50;6.93;;;11.90;99.90;;;;;;5090140;28;20433;-82
2022/12/23 10:59:29;;;;;;;10.37;6.53;;;11.90;1.00;;;;;;5086915;28;20445;-83
2022/12/23 11:02:10;;;;;;;7.30;5.80;;;11.90;1.00;;;;;;5110732;28;20711;-83
2022/12/23 11:04:38;;;;;;;9.93;7.73;;;11.90;1.00;;;;;;5114211;28;20429;-83
2022/12/23 11:07:05;;;;;;;10.43;7.27;;;11.90;1.00;;;;;;5099191;28;20445;-81
2022/12/23 11:09:44;;;;;;;12.27;6.87;;;12.00;1.00;;;;;;5092569;28;20546;-83
2022/12/23 11:12:11;;;;;;;17.83;6.67;;;12.10;1.00;;;;;;5093125;28;20441;-83
2022/12/23 11:14:50;;;;;;;11.57;7.40;;;12.10;1.00;;;;;;5097570;28;20410;-83
2022/12/23 11:17:25;;;;;;;13.87;7.67;;;12.00;1.00;;;;;;5092248;28;20454;-83
2022/12/23 11:20:14;;;;;;;18.57;8.90;;;12.00;1.00;;;;;;5098095;28;20805;-83
2022/12/23 11:22:48;;;;;;;17.90;8.23;;;11.90;1.00;;;;;;5099552;28;20467;-83
2022/12/23 11:25:38;;;;;;;11.70;7.53;;;11.80;1.00;;;;;;5077876;28;20508;-83
2022/12/23 11:28:09;;;;;;;15.97;8.10;;;11.70;1.00;;;;;;5086973;28;20458;-83
2022/12/23 11:30:54;;;;;;;13.03;7.80;;;11.60;1.00;;;;;;5094744;28;20510;-82
2022/12/23 11:33:28;;;;;;;17.33;8.43;;;11.50;1.00;;;;;;5096949;28;20415;-83
2022/12/23 11:36:07;;;;;;;18.70;9.10;;;11.30;1.00;;;;;;5101723;28;20831;-83
2022/12/23 11:38:35;;;;;;;20.20;8.90;;;11.20;1.00;;;;;;5080041;28;20465;-83
2022/12/23 11:41:03;;;;;;;20.50;9.80;;;11.10;1.00;;;;;;5090207;28;20474;-80
2022/12/23 11:43:32;;;;;;;27.37;8.93;;;11.00;1.00;;;;;;5093969;28;20418;-82
2022/12/23 11:46:24;;;;;;;24.10;7.90;;;11.00;1.00;;;;;;5107096;28;20992;-83
2022/12/23 11:49:03;;;;;;;20.43;7.23;;;10.90;1.00;;;;;;5101591;28;20451;-82
2022/12/23 11:51:29;;;;;;;18.70;7.53;;;11.00;1.00;;;;;;5091611;28;20461;-82
2022/12/23 11:53:59;;;;;;;21.07;6.33;;;11.00;1.00;;;;;;5092126;28;20443;-82
2022/12/23 11:56:25;;;;;;;19.77;7.20;;;11.00;1.00;;;;;;5097381;28;20183;-82
2022/12/23 11:59:03;;;;;;;12.43;6.33;;;11.00;1.00;;;;;;5087428;28;20539;-82
2022/12/23 12:01:29;;;;;;;14.10;6.80;;;11.00;1.00;;;;;;5089085;28;20261;-83
2022/12/23 12:03:59;;;;;;;9.83;6.03;;;10.90;1.00;;;;;;5093873;28;20469;-85
2022/12/23 12:06:26;;;;;;;15.23;6.53;;;10.90;1.00;;;;;;5093810;28;20425;-85
2022/12/23 12:08:55;;;;;;;15.90;5.90;;;10.80;1.00;;;;;;5097447;28;20460;-84
2022/12/23 12:11:47;;;;;;;16.70;6.50;;;10.80;1.00;;;;;;5092012;28;20438;-84
2022/12/23 12:14:41;;;;;;;14.07;5.43;;;10.70;1.00;;;;;;5093187;28;20995;-83
2022/12/23 12:17:33;;;;;;;13.90;5.73;;;10.70;1.00;;;;;;5080111;28;20446;-84
2022/12/23 12:20:34;;;;;;;12.23;6.17;;;10.70;1.00;;;;;;5087632;28;20430;-84
2022/12/23 12:23:10;;;;;;;12.37;5.40;;;10.70;1.00;;;;;;5073854;28;20555;-83
2022/12/23 12:25:49;;;;;;;18.13;5.50;;;10.70;1.00;;;;;;5090368;28;20496;-84
2022/12/23 12:28:23;;;;;;;13.47;4.73;;;10.60;1.00;;;;;;5076553;28;20453;-84
2022/12/23 12:31:25;;;;;;;11.47;5.83;;;10.60;1.00;;;;;;5090578;28;20433;-82
2022/12/23 12:34:03;;;;;;;11.83;5.00;;;10.50;1.00;;;;;;5084693;28;21130;-85
2022/12/23 12:36:51;;;;;;;11.77;5.10;;;10.50;1.00;;;;;;5093645;28;20455;-83
2022/12/23 12:39:30;;;;;;;13.67;5.47;;;10.40;1.00;;;;;;5093321;28;22861;-85
2022/12/23 12:42:12;;;;;;;11.97;5.30;;;10.40;1.00;;;;;;5088683;28;20458;-83
2022/12/23 12:44:57;;;;;;;10.73;4.70;;;10.30;1.00;;;;;;5093314;28;20441;-85
2022/12/23 12:47:49;;;;;;;72.33;29.03;;;10.30;1.00;;;;;;5090269;28;20457;-85
2022/12/23 12:50:22;;;;;;;25.63;12.03;;;10.40;1.00;;;;;;5083137;28;20435;-83
2022/12/23 12:52:51;;;;;;;23.73;14.20;;;10.30;1.80;;;;;;5111006;28;20475;-87
2022/12/23 12:55:31;;;;;;;38.90;26.30;;;10.30;3.70;;;;;;5085501;28;20434;-85
2022/12/23 12:57:57;;;;;;;26.40;18.60;;;10.20;2.60;;;;;;5088887;28;20458;-85
2022/12/23 13:00:23;;;;;;;13.43;5.43;;;10.20;3.60;;;;;;5085415;28;20442;-85
2022/12/23 13:03:05;;;;;;;18.73;8.07;;;10.20;6.60;;;;;;5096710;28;20215;-86
2022/12/23 13:05:54;;;;;;;36.73;11.70;;;10.10;8.90;;;;;;5107937;28;20502;-84
2022/12/23 13:08:50;;;;;;;13.30;5.30;;;10.00;12.10;;;;;;5107699;28;20454;-83
2022/12/23 13:11:25;;;;;;;14.33;6.27;;;10.00;16.90;;;;;;5087500;28;20843;-83
2022/12/23 13:14:11;;;;;;;10.90;5.20;;;9.90;19.40;;;;;;5091460;28;20430;-82
2022/12/23 13:16:49;;;;;;;14.50;6.80;;;9.90;21.40;;;;;;5080577;28;20450;-83
2022/12/23 13:19:44;;;;;;;33.13;7.63;;;9.90;23.50;;;;;;5094818;28;21021;-84
2022/12/23 13:22:16;;;;;;;14.60;7.10;;;9.90;24.90;;;;;;5088565;28;20512;-83
2022/12/23 13:24:55;;;;;;;9.20;4.90;;;9.90;26.70;;;;;;5106470;28;20401;-83
2022/12/23 13:27:37;;;;;;;16.07;7.20;;;9.90;28.40;;;;;;5098408;28;20723;-83
2022/12/23 13:30:17;;;;;;;21.60;7.40;;;10.00;29.70;;;;;;5095739;28;20812;-82
2022/12/23 13:32:59;;;;;;;8.90;5.07;;;10.00;30.00;;;;;;5084282;28;20483;-83
2022/12/23 13:35:29;;;;;;;12.40;7.10;;;10.10;31.90;;;;;;5087452;28;20496;-83
2022/12/23 13:38:08;;;;;;;15.10;9.17;;;10.10;32.10;;;;;;5086058;28;20455;-83